Terminal Aerodrome Forecast
Issued by NWS

Current Version | Previous Version | Text Only | Print | Product List | Glossary On
Versions: 1 2 3 4 5 6 7 8 9 10 11 12 13 14 15 16 17 18 19 20 21 22 23 24 25 26 27 28 29 30 31 32 33 34 35 36 37 38 39
000
FTUS44 KHGX 272338
TAFIAH
TAF
KIAH 272338Z 2800/2906 11011KT P6SM VCSH SCT030 SCT060 BKN250
     FM280100 10009KT P6SM FEW040 BKN250
     FM280900 09003KT P6SM VCSH SCT025
      TEMPO 2811/2813 P6SM BKN020
     FM281700 11014KT P6SM VCSH BKN040 PROB30 2817/2819 6SM -TSRA
      BKN040CB
     FM282300 12010KT P6SM FEW035 BKN250=

USA.gov is the U.S. government's official web portal to all federal, state and local government web resources and services.